createdAt,value
2023-04-22T03:00:30.617Z,4.63
2023-04-22T03:02:58.922Z,4.60
2023-04-22T03:05:30.686Z,5.85
2023-04-22T03:08:00.301Z,5.03
2023-04-22T03:10:30.602Z,5.20
2023-04-22T03:12:58.381Z,5.40
2023-04-22T03:15:26.819Z,4.78
2023-04-22T03:17:57.252Z,4.00
2023-04-22T03:20:25.542Z,4.35
2023-04-22T03:22:54.913Z,4.88
2023-04-22T03:25:23.474Z,6.25
2023-04-22T03:27:54.510Z,4.82
2023-04-22T03:30:22.533Z,4.57
2023-04-22T03:32:50.534Z,5.68
2023-04-22T03:35:23.582Z,5.78
2023-04-22T03:37:53.005Z,3.78
2023-04-22T03:40:27.434Z,3.70
2023-04-22T03:42:55.715Z,3.67
2023-04-22T03:45:23.920Z,4.85
2023-04-22T03:48:09.637Z,4.95
2023-04-22T03:50:44.651Z,3.92
2023-04-22T03:53:12.785Z,4.75
2023-04-22T03:55:40.973Z,7.43
2023-04-22T03:58:08.922Z,6.50
2023-04-22T04:00:36.767Z,3.50
2023-04-22T04:03:11.261Z,3.85
2023-04-22T04:05:40.228Z,4.30
2023-04-22T04:08:09.437Z,5.05
2023-04-22T04:10:38.236Z,4.60
2023-04-22T04:13:06.770Z,4.70
2023-04-22T04:15:44.930Z,5.50
2023-04-22T04:18:13.677Z,4.90
2023-04-22T04:20:41.873Z,5.35
2023-04-22T04:23:11.266Z,5.72
2023-04-22T04:25:39.571Z,5.13
2023-04-22T04:28:12.804Z,4.53
2023-04-22T04:30:42.239Z,5.60
2023-04-22T04:33:12.200Z,5.15
2023-04-22T04:35:43.218Z,6.55
2023-04-22T04:38:14.396Z,4.40
2023-04-22T04:40:43.535Z,4.32
2023-04-22T04:43:16.448Z,7.55
2023-04-22T04:45:49.973Z,5.47
2023-04-22T04:48:26.992Z,4.90
2023-04-22T04:51:00.711Z,4.80
2023-04-22T04:53:33.011Z,4.80
2023-04-22T04:56:01.048Z,6.68
2023-04-22T04:58:30.606Z,5.63
2023-04-22T05:01:18.746Z,5.78
2023-04-22T05:03:48.199Z,5.55
2023-04-22T05:06:18.421Z,7.57
2023-04-22T05:08:52.112Z,6.70
2023-04-22T05:11:20.682Z,6.22
2023-04-22T05:13:51.778Z,5.70
2023-04-22T05:16:26.431Z,5.53
2023-04-22T05:18:54.477Z,7.70
2023-04-22T05:21:22.351Z,8.70
2023-04-22T05:23:51.809Z,11.05
2023-04-22T05:26:21.179Z,9.68
2023-04-22T05:28:51.462Z,12.02
2023-04-22T05:31:20.374Z,9.02
2023-04-22T05:33:48.996Z,9.68
2023-04-22T05:36:17.134Z,9.48
2023-04-22T05:38:47.494Z,9.02
2023-04-22T05:41:17.720Z,8.65
2023-04-22T05:43:46.417Z,6.90
2023-04-22T05:46:17.960Z,8.18
2023-04-22T05:48:48.691Z,5.10
2023-04-22T05:51:36.509Z,7.93
2023-04-22T05:54:04.562Z,5.93
2023-04-22T05:56:33.820Z,6.43
2023-04-22T05:59:01.888Z,5.90
2023-04-22T06:01:29.759Z,6.82
2023-04-22T06:04:11.659Z,7.50
2023-04-22T06:06:40.457Z,6.53
2023-04-22T06:09:08.333Z,7.97
2023-04-22T06:11:37.544Z,6.93
2023-04-22T06:14:05.548Z,6.70
2023-04-22T06:16:34.938Z,7.70
2023-04-22T06:19:03.848Z,4.75
2023-04-22T06:21:33.868Z,7.57
2023-04-22T06:24:02.265Z,6.43
2023-04-22T06:26:30.202Z,7.95
2023-04-22T06:28:59.504Z,6.20
2023-04-22T06:31:27.896Z,7.18
2023-04-22T06:33:55.895Z,6.50
2023-04-22T06:36:24.333Z,6.03
2023-04-22T06:38:58.135Z,7.57
2023-04-22T06:41:49.145Z,5.85
2023-04-22T06:44:44.497Z,7.32
2023-04-22T06:47:36.780Z,6.07
2023-04-22T06:50:11.734Z,6.47
2023-04-22T06:52:47.302Z,6.88
2023-04-22T06:55:15.410Z,5.70
2023-04-22T06:57:43.743Z,8.18
2023-04-22T07:00:14.484Z,6.88
2023-04-22T07:02:43.020Z,5.57
2023-04-22T07:05:11.016Z,6.38
2023-04-22T07:07:39.214Z,6.47
2023-04-22T07:10:11.645Z,6.57
2023-04-22T07:12:45.347Z,6.00
2023-04-22T07:15:14.552Z,6.40
2023-04-22T07:17:42.966Z,4.70
2023-04-22T07:20:11.881Z,5.13
2023-04-22T07:22:39.735Z,6.38
2023-04-22T07:25:08.203Z,5.88
2023-04-22T07:27:37.282Z,5.90
2023-04-22T07:30:08.394Z,5.45
2023-04-22T07:32:37.659Z,6.15
2023-04-22T07:35:06.318Z,5.20
2023-04-22T07:37:34.164Z,5.82
2023-04-22T07:40:01.992Z,4.90
2023-04-22T07:42:29.853Z,5.65
2023-04-22T07:44:57.683Z,5.97
2023-04-22T07:47:25.837Z,5.25
2023-04-22T07:49:55.064Z,8.18
2023-04-22T07:52:22.942Z,5.97
2023-04-22T07:54:51.264Z,4.57
2023-04-22T07:57:21.701Z,5.22
2023-04-22T07:59:49.569Z,5.10
2023-04-22T08:02:17.478Z,6.13
2023-04-22T08:04:45.748Z,6.22
2023-04-22T08:07:31.783Z,5.20
2023-04-22T08:10:01.198Z,6.13
2023-04-22T08:12:30.155Z,4.53
2023-04-22T08:14:58.613Z,6.03
2023-04-22T08:17:26.528Z,7.35
2023-04-22T08:19:54.393Z,6.00
2023-04-22T08:22:23.843Z,5.30
2023-04-22T08:24:51.760Z,6.70
2023-04-22T08:27:19.957Z,5.65
2023-04-22T08:29:47.758Z,5.68
2023-04-22T08:32:15.620Z,5.18
2023-04-22T08:34:43.958Z,4.35
2023-04-22T08:37:12.028Z,5.70
2023-04-22T08:39:41.417Z,4.80
2023-04-22T08:42:10.085Z,5.88
2023-04-22T08:44:39.536Z,5.30
2023-04-22T08:47:08.176Z,6.13
2023-04-22T08:49:37.119Z,5.70
2023-04-22T08:52:05.193Z,5.50
2023-04-22T08:54:34.292Z,6.72
2023-04-22T08:57:03.588Z,8.63
2023-04-22T08:59:32.192Z,6.78
2023-04-22T09:02:00.525Z,6.90
2023-04-22T09:04:28.516Z,5.90
2023-04-22T09:06:57.448Z,8.88
2023-04-22T09:09:25.557Z,6.57
2023-04-22T09:11:53.452Z,5.90
2023-04-22T09:14:23.524Z,6.72
2023-04-22T09:16:51.421Z,8.20
2023-04-22T09:19:19.324Z,8.07
2023-04-22T09:21:49.583Z,6.82
2023-04-22T09:24:20.576Z,7.50
2023-04-22T09:26:49.679Z,7.68
2023-04-22T09:29:17.957Z,6.78
2023-04-22T09:31:51.319Z,7.72
2023-04-22T09:34:19.541Z,7.18
2023-04-22T09:36:48.481Z,8.32
2023-04-22T09:39:16.687Z,8.68
2023-04-22T09:41:44.588Z,9.05
2023-04-22T09:44:16.673Z,7.38
2023-04-22T09:46:45.673Z,7.57
2023-04-22T09:49:17.712Z,6.65
2023-04-22T09:51:45.523Z,9.27
2023-04-22T09:54:13.387Z,9.18
2023-04-22T09:56:42.876Z,8.27
2023-04-22T09:59:11.109Z,7.57
2023-04-22T10:01:41.132Z,8.90
2023-04-22T10:04:09.804Z,8.73
2023-04-22T10:06:39.052Z,7.30
2023-04-22T10:09:09.423Z,7.78
2023-04-22T10:11:38.245Z,7.72
2023-04-22T10:14:06.036Z,8.50
2023-04-22T10:16:36.091Z,8.25
2023-04-22T10:19:07.064Z,8.38
2023-04-22T10:21:35.728Z,7.13
2023-04-22T10:24:07.098Z,7.82
2023-04-22T10:26:43.104Z,7.72
2023-04-22T10:29:16.703Z,8.23
2023-04-22T10:31:45.462Z,6.93
2023-04-22T10:34:15.289Z,7.63
2023-04-22T10:36:57.281Z,5.95
2023-04-22T10:39:27.872Z,4.75
2023-04-22T10:41:59.549Z,7.10
2023-04-22T10:44:30.381Z,6.78
2023-04-22T10:47:02.613Z,5.93
2023-04-22T10:49:32.489Z,6.75
2023-04-22T10:52:03.920Z,5.63
2023-04-22T10:54:59.871Z,5.65
2023-04-22T10:57:41.498Z,6.47
2023-04-22T11:00:52.976Z,8.13
2023-04-22T11:03:28.101Z,5.70
2023-04-22T11:06:15.476Z,5.75
2023-04-22T11:08:45.637Z,6.70
2023-04-22T11:11:14.886Z,5.35
2023-04-22T11:13:43.752Z,5.70
2023-04-22T11:16:11.951Z,4.80
2023-04-22T11:18:42.084Z,3.97
2023-04-22T11:21:10.339Z,3.92
2023-04-22T11:23:38.192Z,3.55
2023-04-22T11:26:07.107Z,4.22
2023-04-22T11:28:37.254Z,3.47
2023-04-22T11:31:07.145Z,3.95
2023-04-22T11:33:35.591Z,4.35
2023-04-22T11:36:03.488Z,2.67
2023-04-22T11:38:31.462Z,4.35
2023-04-22T11:40:59.301Z,3.17
2023-04-22T11:43:29.137Z,2.90
2023-04-22T11:45:58.626Z,3.00
2023-04-22T11:48:26.685Z,2.40
2023-04-22T11:51:10.126Z,3.75
2023-04-22T11:53:39.517Z,2.58
2023-04-22T11:56:07.547Z,3.50
2023-04-22T11:58:40.759Z,3.00
2023-04-22T12:01:14.823Z,2.60
2023-04-22T12:03:43.072Z,2.88
2023-04-22T12:06:10.987Z,3.22
2023-04-22T12:08:42.294Z,3.35
2023-04-22T12:11:12.434Z,3.00
2023-04-22T12:13:43.726Z,3.55
2023-04-22T12:16:14.611Z,2.97
2023-04-22T12:18:49.155Z,3.33
2023-04-22T12:21:19.896Z,2.63
2023-04-22T12:23:49.312Z,3.15
2023-04-22T12:26:18.589Z,4.32
2023-04-22T12:28:48.019Z,4.35
2023-04-22T12:31:18.020Z,2.67
2023-04-22T12:33:47.241Z,5.03
2023-04-22T12:36:15.480Z,2.92
2023-04-22T12:38:43.329Z,3.05
2023-04-22T12:41:11.290Z,4.78
2023-04-22T12:43:39.480Z,4.22
2023-04-22T12:46:09.463Z,5.97
2023-04-22T12:48:38.725Z,3.72
2023-04-22T12:51:07.383Z,3.80
2023-04-22T12:53:35.823Z,3.50
2023-04-22T12:56:29.544Z,4.90
2023-04-22T12:59:02.951Z,5.75
2023-04-22T13:01:31.229Z,4.28
2023-04-22T13:04:00.742Z,3.55
2023-04-22T13:06:29.498Z,3.50
2023-04-22T13:08:57.332Z,2.83
2023-04-22T13:11:30.736Z,2.85
2023-04-22T13:13:58.601Z,3.33
2023-04-22T13:16:26.510Z,2.92
2023-04-22T13:18:54.408Z,2.47
2023-04-22T13:21:23.654Z,4.35
2023-04-22T13:23:51.505Z,2.25
2023-04-22T13:26:19.354Z,2.17
2023-04-22T13:28:49.294Z,3.63
2023-04-22T13:31:17.220Z,2.92
2023-04-22T13:33:46.994Z,2.70
2023-04-22T13:36:14.918Z,2.10
2023-04-22T13:38:44.114Z,2.85
2023-04-22T13:41:11.984Z,2.97
2023-04-22T13:43:39.848Z,2.63
2023-04-22T13:46:10.852Z,3.85
2023-04-22T13:48:38.721Z,2.55
2023-04-22T13:51:06.804Z,3.10
2023-04-22T13:53:34.736Z,4.18
2023-04-22T13:56:03.948Z,2.97
2023-04-22T13:58:32.231Z,2.78
2023-04-22T14:01:00.316Z,3.97
2023-04-22T14:03:30.969Z,4.32
2023-04-22T14:06:00.981Z,3.25
2023-04-22T14:08:28.851Z,2.45
2023-04-22T14:10:57.137Z,2.58
2023-04-22T14:13:26.518Z,2.45
2023-04-22T14:15:54.452Z,2.35
2023-04-22T14:18:23.650Z,2.88
2023-04-22T14:20:52.465Z,3.05
2023-04-22T14:23:21.031Z,2.85
2023-04-22T14:25:49.583Z,3.08
2023-04-22T14:28:17.797Z,5.30
2023-04-22T14:30:47.027Z,2.97
2023-04-22T14:33:14.908Z,2.20
2023-04-22T14:35:42.822Z,3.20
2023-04-22T14:38:12.346Z,4.38
2023-04-22T14:40:41.555Z,3.13
2023-04-22T14:43:09.603Z,2.65
2023-04-22T14:45:38.536Z,4.55
2023-04-22T14:48:08.004Z,6.30
2023-04-22T14:50:36.976Z,2.22
2023-04-22T14:53:04.944Z,4.97
2023-04-22T14:55:35.721Z,3.65
2023-04-22T14:58:03.646Z,2.05
2023-04-22T15:00:31.592Z,8.18
2023-04-22T15:03:03.008Z,2.88
2023-04-22T15:05:32.409Z,2.33
2023-04-22T15:08:00.283Z,2.45
2023-04-22T15:10:28.582Z,3.03
2023-04-22T15:12:56.725Z,5.07
2023-04-22T15:15:25.644Z,3.72
2023-04-22T15:17:53.552Z,4.53
2023-04-22T15:20:21.542Z,4.03
2023-04-22T15:22:50.767Z,4.30
2023-04-22T15:25:19.230Z,2.88
2023-04-22T15:27:50.253Z,6.78
2023-04-22T15:30:18.246Z,2.35
2023-04-22T15:32:48.191Z,4.97
2023-04-22T15:35:16.094Z,2.22
2023-04-22T15:37:46.232Z,3.95
2023-04-22T15:40:15.504Z,2.97
2023-04-22T15:42:43.419Z,2.30
2023-04-22T15:45:12.150Z,4.45
2023-04-22T15:47:42.222Z,2.30
2023-04-22T15:50:11.709Z,3.10
2023-04-22T15:52:39.747Z,3.83
2023-04-22T15:55:08.595Z,3.35
2023-04-22T15:57:37.813Z,3.28
2023-04-22T16:00:13.141Z,2.53
2023-04-22T16:02:46.477Z,2.53
2023-04-22T16:05:15.143Z,5.13
2023-04-22T16:07:43.151Z,3.63
2023-04-22T16:10:11.859Z,3.20
2023-04-22T16:12:43.387Z,3.00
2023-04-22T16:15:12.234Z,2.28
2023-04-22T16:17:43.663Z,3.10
2023-04-22T16:20:11.973Z,2.15
2023-04-22T16:22:39.957Z,5.65
2023-04-22T16:25:09.602Z,3.20
2023-04-22T16:27:37.478Z,4.63
2023-04-22T16:30:09.153Z,4.00
2023-04-22T16:32:37.158Z,2.95
2023-04-22T16:35:05.449Z,2.97
2023-04-22T16:37:34.053Z,2.35
2023-04-22T16:40:04.285Z,2.30
2023-04-22T16:42:32.130Z,3.13
2023-04-22T16:45:00.038Z,3.00
2023-04-22T16:47:29.256Z,4.60
2023-04-22T16:49:57.138Z,3.20
2023-04-22T16:52:25.254Z,4.28
2023-04-22T16:54:53.112Z,2.42
2023-04-22T16:57:21.000Z,2.80
2023-04-22T16:59:48.855Z,3.35
2023-04-22T17:02:16.884Z,3.75
2023-04-22T17:04:46.207Z,2.75
2023-04-22T17:07:14.074Z,4.00
2023-04-22T17:09:42.282Z,3.35
2023-04-22T17:12:10.517Z,2.97
2023-04-22T17:14:38.365Z,3.75
2023-04-22T17:17:06.222Z,3.17
2023-04-22T17:19:34.138Z,4.32
2023-04-22T17:22:03.944Z,2.63
2023-04-22T17:24:31.887Z,3.78
2023-04-22T17:26:59.772Z,3.35
2023-04-22T17:29:28.283Z,5.07
2023-04-22T17:31:56.333Z,3.78
2023-04-22T17:34:24.326Z,3.75
2023-04-22T17:36:52.181Z,3.67
2023-04-22T17:39:21.397Z,3.53
2023-04-22T17:41:49.254Z,5.03
2023-04-22T17:44:17.130Z,5.00
2023-04-22T17:46:45.043Z,3.45
2023-04-22T17:49:13.001Z,3.08
2023-04-22T17:51:40.899Z,2.38
2023-04-22T17:54:08.772Z,3.60
2023-04-22T17:56:37.932Z,3.00
2023-04-22T17:59:05.849Z,3.00
2023-04-22T18:01:33.725Z,2.75
2023-04-22T18:04:02.227Z,3.67
2023-04-22T18:06:30.508Z,6.35
2023-04-22T18:08:58.357Z,2.08
2023-04-22T18:11:27.784Z,2.10
2023-04-22T18:13:57.043Z,2.10
2023-04-22T18:16:24.998Z,3.63
2023-04-22T18:18:52.893Z,1.92
2023-04-22T18:21:20.915Z,2.20
2023-04-22T18:23:48.891Z,2.53
2023-04-22T18:26:17.050Z,2.00
2023-04-22T18:28:44.940Z,2.42
2023-04-22T18:31:14.183Z,3.92
2023-04-22T18:33:42.038Z,2.30
2023-04-22T18:36:10.238Z,4.05
2023-04-22T18:38:38.757Z,2.97
2023-04-22T18:41:06.792Z,3.20
2023-04-22T18:43:34.637Z,2.55
2023-04-22T18:46:02.665Z,2.42
2023-04-22T18:48:31.927Z,2.90
2023-04-22T18:51:00.141Z,4.00
2023-04-22T18:53:28.017Z,2.42
2023-04-22T18:55:55.866Z,2.33
2023-04-22T18:58:24.317Z,2.60
2023-04-22T19:00:52.503Z,2.55
2023-04-22T19:03:20.692Z,2.65
2023-04-22T19:05:50.030Z,2.70
2023-04-22T19:08:17.880Z,2.97
2023-04-22T19:10:45.768Z,4.10
2023-04-22T19:13:22.892Z,3.33
2023-04-22T19:15:56.958Z,4.25
2023-04-22T19:18:24.966Z,3.20
2023-04-22T19:20:54.194Z,2.50
2023-04-22T19:23:22.616Z,2.80
2023-04-22T19:25:51.561Z,2.75
2023-04-22T19:28:19.424Z,4.35
2023-04-22T19:30:47.320Z,3.50
2023-04-22T19:33:15.789Z,2.60
2023-04-22T19:35:45.772Z,2.40
2023-04-22T19:38:18.824Z,2.50
2023-04-22T19:40:47.297Z,3.65
2023-04-22T19:43:16.908Z,2.65
2023-04-22T19:45:44.800Z,4.50
2023-04-22T19:48:13.303Z,3.58
2023-04-22T19:50:44.538Z,3.97
2023-04-22T19:53:14.290Z,3.65
2023-04-22T19:55:44.002Z,3.45
2023-04-22T19:58:12.210Z,3.88
2023-04-22T20:00:40.355Z,2.78
2023-04-22T20:03:10.076Z,3.28
2023-04-22T20:05:38.624Z,3.35
2023-04-22T20:08:09.676Z,3.15
2023-04-22T20:10:39.422Z,2.63
2023-04-22T20:13:07.857Z,3.30
2023-04-22T20:15:36.159Z,3.45
2023-04-22T20:18:04.453Z,3.10
2023-04-22T20:20:32.649Z,4.40
2023-04-22T20:23:07.910Z,4.38
2023-04-22T20:25:37.545Z,4.50
2023-04-22T20:28:07.254Z,3.55
2023-04-22T20:30:36.117Z,3.38
2023-04-22T20:33:04.415Z,5.90
2023-04-22T20:35:35.205Z,4.82
2023-04-22T20:38:03.521Z,5.38
2023-04-22T20:40:31.718Z,5.28
2023-04-22T20:42:59.708Z,5.18
2023-04-22T20:45:28.927Z,4.32
2023-04-22T20:47:58.253Z,5.07
2023-04-22T20:50:32.893Z,6.03
2023-04-22T20:53:01.117Z,7.95
2023-04-22T20:55:28.999Z,4.95
2023-04-22T20:57:56.816Z,3.40
2023-04-22T21:00:24.922Z,3.40
2023-04-22T21:02:55.023Z,3.45
2023-04-22T21:05:23.312Z,4.90
2023-04-22T21:07:53.169Z,5.05
2023-04-22T21:10:22.046Z,5.47
2023-04-22T21:12:50.568Z,4.13
2023-04-22T21:15:19.128Z,4.90
2023-04-22T21:17:51.939Z,4.88
2023-04-22T21:20:24.423Z,5.07
2023-04-22T21:22:54.640Z,3.67
2023-04-22T21:25:24.268Z,4.38
2023-04-22T21:27:52.605Z,3.63
2023-04-22T21:30:21.847Z,5.22
2023-04-22T21:32:49.843Z,3.10
2023-04-22T21:35:17.811Z,3.53
2023-04-22T21:37:47.062Z,3.97
2023-04-22T21:40:15.042Z,3.97
2023-04-22T21:42:42.854Z,4.45
2023-04-22T21:45:12.089Z,3.92
2023-04-22T21:47:39.959Z,5.72
2023-04-22T21:50:08.564Z,3.45
2023-04-22T21:52:36.510Z,4.13
2023-04-22T21:55:06.496Z,4.30
2023-04-22T21:57:34.409Z,3.50
2023-04-22T22:00:02.329Z,4.13
